createdAt,value
2022-09-30T00:00:08.337Z,4.50
2022-09-30T00:03:11.398Z,5.80
2022-09-30T00:06:14.415Z,5.20
2022-09-30T00:09:17.687Z,5.80
2022-09-30T00:12:21.233Z,5.40
2022-09-30T00:15:25.880Z,4.87
2022-09-30T00:18:29.603Z,4.63
2022-09-30T00:21:34.671Z,4.20
2022-09-30T00:24:37.711Z,4.17
2022-09-30T00:27:40.798Z,4.90
2022-09-30T00:30:45.256Z,5.33
2022-09-30T00:34:07.049Z,4.70
2022-09-30T00:37:11.751Z,4.37
2022-09-30T00:40:14.725Z,4.07
2022-09-30T00:43:20.537Z,4.63
2022-09-30T00:46:31.155Z,3.93
2022-09-30T00:49:34.785Z,4.80
2022-09-30T00:52:38.417Z,4.60
2022-09-30T00:55:49.821Z,4.27
2022-09-30T00:58:55.810Z,4.43
2022-09-30T01:02:01.415Z,3.90
2022-09-30T01:05:04.993Z,3.77
2022-09-30T01:08:10.047Z,4.33
2022-09-30T01:11:13.166Z,4.20
2022-09-30T01:14:18.796Z,3.93
2022-09-30T01:17:33.437Z,3.70
2022-09-30T01:21:05.043Z,4.00
2022-09-30T01:24:44.439Z,4.60
2022-09-30T01:28:30.287Z,4.60
2022-09-30T01:31:49.081Z,6.20
2022-09-30T01:35:06.266Z,6.77
2022-09-30T01:38:17.409Z,7.00
2022-09-30T01:41:28.285Z,6.73
2022-09-30T01:44:39.267Z,7.60
2022-09-30T01:47:51.580Z,6.90
2022-09-30T01:51:00.104Z,7.90
2022-09-30T01:54:07.519Z,7.33
2022-09-30T01:57:18.076Z,7.77
2022-09-30T02:00:21.273Z,8.00
2022-09-30T02:03:31.264Z,7.37
2022-09-30T02:06:39.229Z,7.80
2022-09-30T02:09:47.224Z,7.80
2022-09-30T02:12:57.741Z,8.07
2022-09-30T02:16:13.003Z,7.93
2022-09-30T02:19:23.208Z,7.27
2022-09-30T02:22:31.802Z,8.20
2022-09-30T02:25:41.027Z,7.97
2022-09-30T02:28:47.650Z,6.93
2022-09-30T02:31:55.843Z,7.60
2022-09-30T02:35:05.391Z,7.50
2022-09-30T02:38:16.266Z,8.23
2022-09-30T02:41:23.799Z,7.80
2022-09-30T02:44:27.421Z,8.37
2022-09-30T02:47:37.777Z,7.10
2022-09-30T02:50:48.715Z,7.37
2022-09-30T02:53:58.452Z,6.93
2022-09-30T02:57:10.007Z,6.20
2022-09-30T03:00:13.929Z,6.10
2022-09-30T03:03:21.199Z,5.90
2022-09-30T03:06:25.784Z,8.07
2022-09-30T03:09:29.381Z,10.13
2022-09-30T03:12:43.949Z,11.07
2022-09-30T03:16:04.717Z,9.37
2022-09-30T03:19:26.145Z,11.30
2022-09-30T03:22:48.925Z,7.73
2022-09-30T03:26:02.253Z,14.27
2022-09-30T03:29:15.261Z,16.77
2022-09-30T03:32:31.810Z,10.50
2022-09-30T03:35:46.903Z,9.67
2022-09-30T03:38:59.407Z,9.37
2022-09-30T03:42:11.199Z,9.53
2022-09-30T03:45:20.230Z,9.27
2022-09-30T03:48:26.088Z,9.80
2022-09-30T03:51:30.995Z,9.77
2022-09-30T03:54:38.351Z,10.50
2022-09-30T03:57:41.769Z,13.60
2022-09-30T04:00:49.687Z,13.57
2022-09-30T04:03:53.956Z,10.83
2022-09-30T04:06:57.010Z,9.97
2022-09-30T04:10:01.494Z,10.70
2022-09-30T04:13:04.616Z,10.47
2022-09-30T04:16:09.208Z,9.83
2022-09-30T04:19:12.291Z,10.23
2022-09-30T04:22:15.876Z,10.13
2022-09-30T04:25:20.354Z,9.80
2022-09-30T04:28:23.674Z,9.40
2022-09-30T04:31:26.988Z,9.60
2022-09-30T04:34:30.115Z,9.53
2022-09-30T04:37:33.301Z,8.70
2022-09-30T04:40:40.046Z,8.53
2022-09-30T04:43:47.052Z,9.17
2022-09-30T04:46:50.537Z,8.60
2022-09-30T04:49:53.566Z,8.63
2022-09-30T04:52:57.385Z,9.40
2022-09-30T04:56:03.320Z,9.30
2022-09-30T04:59:07.148Z,8.70
2022-09-30T05:02:11.224Z,9.23
2022-09-30T05:05:14.966Z,9.67
2022-09-30T05:08:17.992Z,9.30
2022-09-30T05:11:23.629Z,8.93
2022-09-30T05:14:26.695Z,8.93
2022-09-30T05:17:31.353Z,10.00
2022-09-30T05:20:34.712Z,11.20
2022-09-30T05:23:38.300Z,11.57
2022-09-30T05:26:42.727Z,11.70
2022-09-30T05:29:45.923Z,13.10
2022-09-30T05:32:48.899Z,12.17
2022-09-30T05:35:51.911Z,11.67
2022-09-30T05:38:55.843Z,12.57
2022-09-30T05:42:00.433Z,12.13
2022-09-30T05:45:03.461Z,12.80
2022-09-30T05:48:07.033Z,12.40
2022-09-30T05:51:10.081Z,11.77
2022-09-30T05:54:13.402Z,11.07
2022-09-30T05:57:20.750Z,11.27
2022-09-30T06:00:23.838Z,12.30
2022-09-30T06:03:26.828Z,11.53
2022-09-30T06:06:30.451Z,11.00
2022-09-30T06:09:37.030Z,11.73
2022-09-30T06:12:41.457Z,11.20
2022-09-30T06:15:45.042Z,11.80
2022-09-30T06:18:48.160Z,11.43
2022-09-30T06:21:51.946Z,12.00
2022-09-30T06:24:55.420Z,11.57
2022-09-30T06:28:00.075Z,12.20
2022-09-30T06:31:03.220Z,11.40
2022-09-30T06:34:06.756Z,10.50
2022-09-30T06:37:11.703Z,11.47
2022-09-30T06:40:15.052Z,11.00
2022-09-30T06:43:19.538Z,9.67
2022-09-30T06:46:30.279Z,13.70
2022-09-30T06:49:46.465Z,12.93
2022-09-30T06:52:52.354Z,12.80
2022-09-30T06:55:57.537Z,12.43
2022-09-30T06:59:01.958Z,12.07
2022-09-30T07:02:04.992Z,11.10
2022-09-30T07:05:08.860Z,11.03
2022-09-30T07:08:11.829Z,10.30
2022-09-30T07:11:16.218Z,10.97
2022-09-30T07:14:24.155Z,10.23
2022-09-30T07:17:27.269Z,10.17
2022-09-30T07:20:30.346Z,10.00
2022-09-30T07:23:33.400Z,10.37
2022-09-30T07:26:36.460Z,10.40
2022-09-30T07:30:07.112Z,9.80
2022-09-30T07:33:04.211Z,10.30
2022-09-30T07:36:08.999Z,10.67
2022-09-30T07:39:12.522Z,11.00
2022-09-30T07:42:22.693Z,9.87
2022-09-30T07:45:27.590Z,10.20
2022-09-30T07:48:47.503Z,9.20
2022-09-30T07:51:50.612Z,9.87
2022-09-30T07:54:53.695Z,10.13
2022-09-30T07:57:56.733Z,11.00
2022-09-30T08:01:01.356Z,9.73
2022-09-30T08:04:06.946Z,9.80
2022-09-30T08:07:10.126Z,10.20
2022-09-30T08:10:13.309Z,9.10
2022-09-30T08:13:16.774Z,10.10
2022-09-30T08:16:21.695Z,9.47
2022-09-30T08:19:26.259Z,8.40
2022-09-30T08:22:29.374Z,8.20
2022-09-30T08:25:32.393Z,9.90
2022-09-30T08:28:35.939Z,13.43
2022-09-30T08:31:41.006Z,13.23
2022-09-30T08:34:44.149Z,11.97
2022-09-30T08:37:47.150Z,11.77
2022-09-30T08:41:02.814Z,11.43
2022-09-30T08:44:21.575Z,12.23
2022-09-30T08:47:44.831Z,11.10
2022-09-30T08:50:57.889Z,10.80
2022-09-30T08:54:05.719Z,11.37
2022-09-30T08:57:12.340Z,11.20
2022-09-30T09:00:17.502Z,10.13
2022-09-30T09:03:24.520Z,10.20
2022-09-30T09:06:32.113Z,9.50
2022-09-30T09:09:49.877Z,9.80
2022-09-30T09:13:00.125Z,9.67
2022-09-30T09:16:10.732Z,8.83
2022-09-30T09:19:18.726Z,9.97
2022-09-30T09:22:24.773Z,9.10
2022-09-30T09:25:29.161Z,9.33
2022-09-30T09:28:37.431Z,9.37
2022-09-30T09:31:40.564Z,9.17
2022-09-30T09:34:46.246Z,8.30
2022-09-30T09:38:19.977Z,8.93
2022-09-30T09:41:34.737Z,8.53
2022-09-30T09:44:45.159Z,9.80
2022-09-30T09:47:52.507Z,8.73
2022-09-30T09:51:04.752Z,10.37
2022-09-30T09:54:12.224Z,9.60
2022-09-30T09:57:18.148Z,9.20
2022-09-30T10:00:44.066Z,9.40
2022-09-30T10:03:48.435Z,8.60
2022-09-30T10:06:55.764Z,9.53
2022-09-30T10:10:22.296Z,9.53
2022-09-30T10:13:28.381Z,8.90
2022-09-30T10:16:37.108Z,9.37
2022-09-30T10:19:45.079Z,9.77
2022-09-30T10:22:49.748Z,11.20
2022-09-30T10:26:07.871Z,11.87
2022-09-30T10:29:27.328Z,12.00
2022-09-30T10:32:31.041Z,11.77
2022-09-30T10:35:34.108Z,12.50
2022-09-30T10:38:46.756Z,13.63
2022-09-30T10:41:50.077Z,13.90
2022-09-30T10:44:56.906Z,14.23
2022-09-30T10:48:07.001Z,15.00
2022-09-30T10:51:28.457Z,17.07
2022-09-30T10:54:55.098Z,16.83
2022-09-30T10:58:04.585Z,15.83
2022-09-30T11:01:18.708Z,17.03
2022-09-30T11:04:28.847Z,19.00
2022-09-30T11:07:38.114Z,17.87
2022-09-30T11:10:49.583Z,19.00
2022-09-30T11:13:58.535Z,20.47
2022-09-30T11:17:11.860Z,22.43
2022-09-30T11:20:21.187Z,23.50
2022-09-30T11:23:32.203Z,23.70
2022-09-30T11:26:49.451Z,25.90
2022-09-30T11:30:03.550Z,24.60
2022-09-30T11:33:20.394Z,25.60
2022-09-30T11:36:32.728Z,25.57
2022-09-30T11:40:00.269Z,28.20
2022-09-30T11:43:15.413Z,26.47
2022-09-30T11:46:55.364Z,27.23
2022-09-30T11:50:16.887Z,27.33
2022-09-30T11:53:32.324Z,29.27
2022-09-30T11:56:44.027Z,31.20
2022-09-30T11:59:55.243Z,32.30
2022-09-30T12:03:10.013Z,31.93
2022-09-30T12:06:22.051Z,31.20
2022-09-30T12:09:27.255Z,30.67
2022-09-30T12:12:32.244Z,29.97
2022-09-30T12:15:37.985Z,29.87
2022-09-30T12:18:45.724Z,29.33
2022-09-30T12:21:54.431Z,29.30
2022-09-30T12:24:57.429Z,29.03
2022-09-30T12:28:28.406Z,30.40
2022-09-30T12:32:01.371Z,29.30
2022-09-30T12:35:21.707Z,30.67
2022-09-30T12:38:38.755Z,29.60
2022-09-30T12:42:03.537Z,27.40
2022-09-30T12:45:26.004Z,23.40
2022-09-30T12:48:37.436Z,24.00
2022-09-30T12:51:44.538Z,24.80
2022-09-30T12:54:52.831Z,27.03
2022-09-30T12:57:57.127Z,28.03
2022-09-30T13:01:07.849Z,25.53
2022-09-30T13:04:19.422Z,26.97
2022-09-30T13:07:23.996Z,25.10
2022-09-30T13:10:30.593Z,25.60
2022-09-30T13:13:35.022Z,24.37
2022-09-30T13:17:05.408Z,23.17
2022-09-30T13:20:41.949Z,23.17
2022-09-30T13:23:48.050Z,20.80
2022-09-30T13:27:09.547Z,20.47
2022-09-30T13:30:36.286Z,20.20
2022-09-30T13:33:44.832Z,20.87
2022-09-30T13:37:01.247Z,19.57
2022-09-30T13:40:14.244Z,18.57
2022-09-30T13:43:23.154Z,18.33
2022-09-30T13:46:35.664Z,17.80
2022-09-30T13:49:45.082Z,18.10
2022-09-30T13:52:53.824Z,17.63
2022-09-30T13:56:01.151Z,17.07
2022-09-30T13:59:26.508Z,15.47
2022-09-30T14:02:57.356Z,13.57
2022-09-30T14:06:10.231Z,12.70
2022-09-30T14:09:29.752Z,13.70
2022-09-30T14:12:45.136Z,12.20
2022-09-30T14:16:13.205Z,10.50
2022-09-30T14:19:34.645Z,10.80
2022-09-30T14:22:38.258Z,10.47
2022-09-30T14:25:50.345Z,9.70
2022-09-30T14:29:01.246Z,9.93
2022-09-30T14:32:12.684Z,9.97
2022-09-30T14:35:21.233Z,9.60
2022-09-30T14:38:28.369Z,10.13
2022-09-30T14:41:34.840Z,9.83
2022-09-30T14:44:40.288Z,9.23
2022-09-30T14:47:46.137Z,8.00
2022-09-30T14:50:54.237Z,8.20
2022-09-30T14:54:00.905Z,7.77
2022-09-30T14:57:15.361Z,7.80
2022-09-30T15:00:29.615Z,8.20
2022-09-30T15:03:35.423Z,7.40
2022-09-30T15:06:41.429Z,7.80
2022-09-30T15:09:46.312Z,7.00
2022-09-30T15:12:51.664Z,7.20
2022-09-30T15:15:56.395Z,7.53
2022-09-30T15:18:59.766Z,6.93
2022-09-30T15:22:04.834Z,7.30
2022-09-30T15:25:11.412Z,6.73
2022-09-30T15:28:14.723Z,6.67
2022-09-30T15:31:26.615Z,6.57
2022-09-30T15:34:30.602Z,6.83
2022-09-30T15:37:34.624Z,6.30
2022-09-30T15:40:48.527Z,6.40
2022-09-30T15:43:53.984Z,6.40
2022-09-30T15:47:07.522Z,6.10
2022-09-30T15:50:41.261Z,6.00
2022-09-30T15:53:50.088Z,6.80
2022-09-30T15:56:53.361Z,6.50
2022-09-30T16:00:02.231Z,4.97
2022-09-30T16:03:29.065Z,6.00
2022-09-30T16:06:37.349Z,5.20
2022-09-30T16:09:41.996Z,4.50
2022-09-30T16:12:49.353Z,3.70
2022-09-30T16:15:54.904Z,4.93
2022-09-30T16:18:59.710Z,5.20
2022-09-30T16:22:04.114Z,4.70
2022-09-30T16:25:18.301Z,8.10
2022-09-30T16:28:23.331Z,9.50
2022-09-30T16:31:26.512Z,8.73
2022-09-30T16:34:32.265Z,7.40
2022-09-30T16:37:36.744Z,7.80
2022-09-30T16:40:40.376Z,7.13
2022-09-30T16:43:43.962Z,6.97
2022-09-30T16:46:46.934Z,4.33
2022-09-30T16:49:51.140Z,4.47
2022-09-30T16:52:56.262Z,4.73
2022-09-30T16:55:59.694Z,4.70
2022-09-30T16:59:02.719Z,5.00
2022-09-30T17:02:06.581Z,4.40
2022-09-30T17:05:14.287Z,4.13
2022-09-30T17:08:19.223Z,5.30
2022-09-30T17:11:27.073Z,5.63
2022-09-30T17:14:30.159Z,5.70
2022-09-30T17:17:33.400Z,5.80
2022-09-30T17:20:38.205Z,5.73
2022-09-30T17:23:42.812Z,5.77
2022-09-30T17:26:45.980Z,5.40
2022-09-30T17:29:49.107Z,6.80
2022-09-30T17:32:54.517Z,6.80
2022-09-30T17:36:01.259Z,6.00
2022-09-30T17:39:07.645Z,6.13
2022-09-30T17:42:32.339Z,5.57
2022-09-30T17:45:36.080Z,5.27
2022-09-30T17:48:39.626Z,5.47
2022-09-30T17:51:42.639Z,5.23
2022-09-30T17:54:52.089Z,5.00
2022-09-30T17:57:55.976Z,4.30
2022-09-30T18:01:00.035Z,4.23
2022-09-30T18:04:03.537Z,4.53
2022-09-30T18:07:10.127Z,4.20
2022-09-30T18:10:14.794Z,5.30
2022-09-30T18:13:19.413Z,5.70
2022-09-30T18:16:24.528Z,5.17
2022-09-30T18:19:27.573Z,5.53
2022-09-30T18:22:31.410Z,5.50
2022-09-30T18:25:36.844Z,8.27
2022-09-30T18:28:39.892Z,11.17
2022-09-30T18:31:43.237Z,12.97
2022-09-30T18:34:46.394Z,11.83
2022-09-30T18:37:50.890Z,11.50
2022-09-30T18:40:56.927Z,10.17
2022-09-30T18:44:03.040Z,9.70
2022-09-30T18:47:06.595Z,10.00
2022-09-30T18:50:11.341Z,9.13
2022-09-30T18:53:15.747Z,8.83
2022-09-30T18:56:21.795Z,8.37
2022-09-30T18:59:24.913Z,8.40
2022-09-30T19:02:28.144Z,7.77
2022-09-30T19:05:31.300Z,8.30
2022-09-30T19:08:34.283Z,8.90
2022-09-30T19:11:42.750Z,8.97
2022-09-30T19:14:46.404Z,10.53
2022-09-30T19:17:53.750Z,9.97
2022-09-30T19:20:57.029Z,9.60
2022-09-30T19:24:00.270Z,10.00
2022-09-30T19:27:04.965Z,10.60
2022-09-30T19:30:09.819Z,9.90
2022-09-30T19:33:12.971Z,10.30
2022-09-30T19:36:17.578Z,10.40
2022-09-30T19:39:20.865Z,9.60
2022-09-30T19:42:28.080Z,10.50
2022-09-30T19:45:31.520Z,10.60
2022-09-30T19:48:36.548Z,10.13
2022-09-30T19:51:39.517Z,9.27
2022-09-30T19:54:42.570Z,9.40
2022-09-30T19:57:46.894Z,9.70
2022-09-30T20:00:56.348Z,17.23
2022-09-30T20:04:03.064Z,19.37
2022-09-30T20:07:06.024Z,14.77
2022-09-30T20:10:09.867Z,13.20
2022-09-30T20:13:14.230Z,12.83
2022-09-30T20:16:16.438Z,10.93
2022-09-30T20:19:20.628Z,11.40
2022-09-30T20:22:27.310Z,11.67
2022-09-30T20:25:32.176Z,10.83
2022-09-30T20:28:37.116Z,10.43
2022-09-30T20:31:42.113Z,11.43
2022-09-30T20:34:45.902Z,12.83
2022-09-30T20:37:48.933Z,10.20
2022-09-30T20:40:55.575Z,10.50
2022-09-30T20:44:00.072Z,10.03
2022-09-30T20:47:03.397Z,10.47
2022-09-30T20:50:07.669Z,10.30
2022-09-30T20:53:13.726Z,10.20
2022-09-30T20:56:16.784Z,10.20
2022-09-30T20:59:21.127Z,9.83
2022-09-30T21:02:28.063Z,9.20
2022-09-30T21:05:31.402Z,8.37
2022-09-30T21:08:38.805Z,9.53
2022-09-30T21:11:42.349Z,8.67
2022-09-30T21:14:46.801Z,8.40
2022-09-30T21:17:49.828Z,8.73
2022-09-30T21:20:57.517Z,8.27
2022-09-30T21:24:00.481Z,8.30
2022-09-30T21:27:06.176Z,7.77
2022-09-30T21:30:11.681Z,8.47
2022-09-30T21:33:14.632Z,8.90
2022-09-30T21:36:17.693Z,7.80
2022-09-30T21:39:20.715Z,7.10
2022-09-30T21:42:23.911Z,7.80
2022-09-30T21:45:28.561Z,7.10
2022-09-30T21:48:32.622Z,6.83
2022-09-30T21:51:36.521Z,7.03
2022-09-30T21:54:40.693Z,6.40
2022-09-30T21:57:45.915Z,6.77
2022-09-30T22:00:50.395Z,5.60
2022-09-30T22:03:53.398Z,6.83
2022-09-30T22:06:56.370Z,6.03
2022-09-30T22:09:59.353Z,6.20
2022-09-30T22:13:02.554Z,6.00
2022-09-30T22:16:08.190Z,5.43
2022-09-30T22:19:11.369Z,5.87
2022-09-30T22:22:14.358Z,5.53
2022-09-30T22:25:17.419Z,6.03
2022-09-30T22:28:20.426Z,5.43
2022-09-30T22:31:27.287Z,5.30
2022-09-30T22:34:47.683Z,5.70
2022-09-30T22:38:04.931Z,5.10
2022-09-30T22:41:07.857Z,4.87
2022-09-30T22:44:10.875Z,5.23
2022-09-30T22:47:15.821Z,5.40
2022-09-30T22:50:19.652Z,5.00
2022-09-30T22:53:22.589Z,4.83
2022-09-30T22:56:25.685Z,4.90
2022-09-30T22:59:30.070Z,5.07
2022-09-30T23:02:34.702Z,4.93
2022-09-30T23:05:37.697Z,5.30
2022-09-30T23:08:42.611Z,5.50
2022-09-30T23:11:46.117Z,5.00
2022-09-30T23:14:49.110Z,4.80
2022-09-30T23:17:53.472Z,4.90
2022-09-30T23:20:57.583Z,4.90
2022-09-30T23:24:01.027Z,5.20
2022-09-30T23:27:04.100Z,5.87
2022-09-30T23:30:08.139Z,4.70
2022-09-30T23:33:12.533Z,4.97
2022-09-30T23:36:17.475Z,4.60
2022-09-30T23:39:21.345Z,4.97
2022-09-30T23:42:24.338Z,4.93
2022-09-30T23:45:27.330Z,5.07
2022-09-30T23:48:31.703Z,5.03
2022-09-30T23:51:35.048Z,5.00
2022-09-30T23:54:38.317Z,4.87
2022-09-30T23:57:41.250Z,5.47
